createdAt,value
2022-08-28T00:00:25.546Z,20.92
2022-08-28T00:02:53.201Z,20.92
2022-08-28T00:05:22.853Z,20.84
2022-08-28T00:07:54.652Z,20.86
2022-08-28T00:10:24.067Z,20.82
2022-08-28T00:12:52.678Z,20.83
2022-08-28T00:15:24.016Z,20.85
2022-08-28T00:17:50.823Z,20.83
2022-08-28T00:20:19.876Z,20.82
2022-08-28T00:22:46.746Z,20.83
2022-08-28T00:25:15.432Z,20.83
2022-08-28T00:27:55.020Z,20.84
2022-08-28T00:30:28.218Z,20.84
2022-08-28T00:32:59.415Z,20.83
2022-08-28T00:35:27.042Z,20.83
2022-08-28T00:37:54.872Z,20.81
2022-08-28T00:40:28.777Z,20.82
2022-08-28T00:43:00.365Z,20.84
2022-08-28T00:45:28.014Z,20.88
2022-08-28T00:47:54.451Z,20.86
2022-08-28T00:50:24.601Z,20.88
2022-08-28T00:52:57.497Z,20.87
2022-08-28T00:55:26.854Z,20.89
2022-08-28T00:57:56.491Z,20.90
2022-08-28T01:00:30.877Z,20.90
2022-08-28T01:02:58.184Z,20.87
2022-08-28T01:05:26.307Z,20.91
2022-08-28T01:07:54.059Z,20.89
2022-08-28T01:10:23.862Z,20.87
2022-08-28T01:12:51.350Z,20.86
2022-08-28T01:15:24.301Z,20.84
2022-08-28T01:17:53.707Z,20.83
2022-08-28T01:20:24.810Z,20.81
2022-08-28T01:23:00.905Z,20.81
2022-08-28T01:25:31.834Z,20.81
2022-08-28T01:27:58.921Z,20.79
2022-08-28T01:30:25.543Z,20.79
2022-08-28T01:32:55.642Z,20.79
2022-08-28T01:35:28.794Z,20.79
2022-08-28T01:37:56.169Z,20.81
2022-08-28T01:40:39.217Z,20.76
2022-08-28T01:43:11.824Z,20.74
2022-08-28T01:45:42.214Z,20.73
2022-08-28T01:48:08.749Z,20.72
2022-08-28T01:50:35.470Z,20.71
2022-08-28T01:53:12.332Z,20.71
2022-08-28T01:55:39.301Z,20.69
2022-08-28T01:58:07.150Z,20.69
2022-08-28T02:00:38.518Z,20.66
2022-08-28T02:03:07.620Z,20.66
2022-08-28T02:05:35.819Z,20.66
2022-08-28T02:08:07.145Z,20.66
2022-08-28T02:10:35.729Z,20.65
2022-08-28T02:13:03.981Z,20.62
2022-08-28T02:15:37.405Z,20.62
2022-08-28T02:18:08.442Z,20.61
2022-08-28T02:20:35.193Z,20.59
2022-08-28T02:23:01.799Z,20.58
2022-08-28T02:25:30.820Z,20.56
2022-08-28T02:27:57.817Z,20.53
2022-08-28T02:30:24.535Z,20.51
2022-08-28T02:32:53.615Z,20.47
2022-08-28T02:35:23.191Z,20.41
2022-08-28T02:37:50.480Z,20.40
2022-08-28T02:40:19.592Z,20.40
2022-08-28T02:42:49.211Z,20.36
2022-08-28T02:45:17.443Z,20.36
2022-08-28T02:47:45.648Z,20.35
2022-08-28T02:50:15.664Z,20.32
2022-08-28T02:52:42.600Z,20.30
2022-08-28T02:55:10.831Z,20.31
2022-08-28T02:57:37.424Z,20.32
2022-08-28T03:00:10.078Z,20.27
2022-08-28T03:02:36.775Z,20.25
2022-08-28T03:05:04.060Z,20.22
2022-08-28T03:07:30.873Z,20.21
2022-08-28T03:09:57.418Z,20.23
2022-08-28T03:12:24.356Z,20.25
2022-08-28T03:14:54.605Z,20.26
2022-08-28T03:17:22.091Z,20.21
2022-08-28T03:19:50.035Z,20.22
2022-08-28T03:22:17.493Z,20.17
2022-08-28T03:24:44.898Z,20.18
2022-08-28T03:27:11.687Z,20.15
2022-08-28T03:29:38.232Z,20.16
2022-08-28T03:32:07.248Z,20.13
2022-08-28T03:34:33.771Z,20.12
2022-08-28T03:37:01.176Z,20.10
2022-08-28T03:39:30.653Z,20.10
2022-08-28T03:41:57.150Z,20.08
2022-08-28T03:44:23.653Z,20.06
2022-08-28T03:46:54.873Z,20.05
2022-08-28T03:49:21.932Z,20.03
2022-08-28T03:51:49.603Z,20.03
2022-08-28T03:54:18.681Z,20.03
2022-08-28T03:56:45.094Z,20.07
2022-08-28T03:59:11.535Z,20.04
2022-08-28T04:01:38.309Z,20.01
2022-08-28T04:04:09.603Z,20.03
2022-08-28T04:06:38.614Z,20.01
2022-08-28T04:09:05.797Z,19.98
2022-08-28T04:11:37.448Z,19.98
2022-08-28T04:14:07.798Z,19.98
2022-08-28T04:16:36.719Z,19.98
2022-08-28T04:19:03.608Z,19.97
2022-08-28T04:21:30.406Z,19.94
2022-08-28T04:23:56.960Z,19.93
2022-08-28T04:26:26.173Z,19.93
2022-08-28T04:28:53.841Z,19.92
2022-08-28T04:31:31.923Z,19.88
2022-08-28T04:34:06.211Z,19.91
2022-08-28T04:36:35.769Z,19.93
2022-08-28T04:39:03.114Z,19.92
2022-08-28T04:41:30.480Z,19.89
2022-08-28T04:43:57.785Z,19.93
2022-08-28T04:46:25.193Z,19.87
2022-08-28T04:48:57.460Z,19.87
2022-08-28T04:51:23.941Z,19.88
2022-08-28T04:53:52.773Z,19.85
2022-08-28T04:56:21.664Z,19.86
2022-08-28T04:58:48.162Z,19.86
2022-08-28T05:01:18.851Z,19.86
2022-08-28T05:03:53.989Z,19.85
2022-08-28T05:06:21.763Z,19.85
2022-08-28T05:08:48.334Z,19.84
2022-08-28T05:11:30.738Z,19.82
2022-08-28T05:14:05.593Z,19.81
2022-08-28T05:16:34.954Z,19.85
2022-08-28T05:19:02.019Z,19.84
2022-08-28T05:21:28.510Z,19.83
2022-08-28T05:23:57.459Z,19.81
2022-08-28T05:26:27.096Z,19.81
2022-08-28T05:28:56.287Z,19.80
2022-08-28T05:31:24.103Z,19.83
2022-08-28T05:33:52.677Z,19.84
2022-08-28T05:36:22.043Z,19.83
2022-08-28T05:38:49.393Z,19.85
2022-08-28T05:41:25.017Z,19.88
2022-08-28T05:43:54.660Z,19.83
2022-08-28T05:46:22.299Z,19.87
2022-08-28T05:48:49.389Z,19.93
2022-08-28T05:51:20.097Z,19.96
2022-08-28T05:53:49.839Z,19.93
2022-08-28T05:56:19.728Z,19.95
2022-08-28T05:58:46.285Z,19.98
2022-08-28T06:01:14.649Z,20.01
2022-08-28T06:03:43.606Z,20.01
2022-08-28T06:06:12.548Z,20.04
2022-08-28T06:08:58.049Z,20.01
2022-08-28T06:11:30.409Z,20.03
2022-08-28T06:14:03.317Z,20.04
2022-08-28T06:16:32.515Z,20.07
2022-08-28T06:19:01.681Z,20.09
2022-08-28T06:21:29.033Z,20.17
2022-08-28T06:23:56.220Z,20.18
2022-08-28T06:26:23.734Z,20.22
2022-08-28T06:28:53.070Z,20.21
2022-08-28T06:31:23.729Z,20.32
2022-08-28T06:33:51.957Z,20.29
2022-08-28T06:36:18.361Z,20.31
2022-08-28T06:38:46.712Z,20.33
2022-08-28T06:41:15.526Z,20.36
2022-08-28T06:43:44.724Z,20.38
2022-08-28T06:46:11.214Z,20.41
2022-08-28T06:48:37.800Z,20.50
2022-08-28T06:51:14.575Z,20.53
2022-08-28T06:53:45.708Z,20.60
2022-08-28T06:56:26.404Z,20.67
2022-08-28T06:58:56.022Z,20.64
2022-08-28T07:01:34.798Z,20.65
2022-08-28T07:04:06.424Z,20.61
2022-08-28T07:06:35.559Z,20.60
2022-08-28T07:09:05.219Z,20.60
2022-08-28T07:11:33.791Z,20.67
2022-08-28T07:14:01.635Z,20.74
2022-08-28T07:16:32.836Z,20.72
2022-08-28T07:18:59.809Z,20.69
2022-08-28T07:21:26.874Z,20.73
2022-08-28T07:23:54.924Z,20.78
2022-08-28T07:26:23.757Z,20.76
2022-08-28T07:28:51.916Z,20.86
2022-08-28T07:31:22.502Z,20.91
2022-08-28T07:33:50.859Z,20.98
2022-08-28T07:36:29.452Z,21.09
2022-08-28T07:38:59.676Z,21.33
2022-08-28T07:41:35.454Z,21.42
2022-08-28T07:44:20.893Z,21.77
2022-08-28T07:46:59.173Z,21.98
2022-08-28T07:49:26.462Z,22.04
2022-08-28T07:51:54.075Z,22.11
2022-08-28T07:54:24.195Z,22.15
2022-08-28T07:56:55.442Z,22.15
2022-08-28T07:59:22.272Z,22.08
2022-08-28T08:01:51.455Z,22.02
2022-08-28T08:04:19.993Z,22.16
2022-08-28T08:06:46.902Z,22.19
2022-08-28T08:09:15.788Z,22.29
2022-08-28T08:11:42.636Z,22.29
2022-08-28T08:14:11.882Z,22.30
2022-08-28T08:16:43.450Z,22.33
2022-08-28T08:19:10.469Z,22.36
2022-08-28T08:21:40.018Z,22.43
2022-08-28T08:24:07.366Z,22.45
2022-08-28T08:26:34.140Z,22.42
2022-08-28T08:29:00.738Z,22.60
2022-08-28T08:31:35.220Z,22.52
2022-08-28T08:34:05.664Z,22.65
2022-08-28T08:36:34.429Z,22.71
2022-08-28T08:39:06.559Z,22.89
2022-08-28T08:41:48.219Z,22.91
2022-08-28T08:44:33.610Z,23.04
2022-08-28T08:47:41.362Z,23.28
2022-08-28T08:50:17.349Z,23.30
2022-08-28T08:53:04.918Z,22.95
2022-08-28T08:55:35.660Z,22.93
2022-08-28T08:58:07.155Z,22.91
2022-08-28T09:00:37.415Z,22.92
2022-08-28T09:03:15.080Z,22.75
2022-08-28T09:06:12.593Z,22.77
2022-08-28T09:08:47.466Z,23.10
2022-08-28T09:11:58.413Z,23.60
2022-08-28T09:14:45.420Z,23.80
2022-08-28T09:17:17.850Z,23.50
2022-08-28T09:19:44.293Z,23.52
2022-08-28T09:22:11.483Z,23.51
2022-08-28T09:24:41.267Z,23.38
2022-08-28T09:27:27.423Z,23.49
2022-08-28T09:29:58.796Z,23.45
2022-08-28T09:32:41.510Z,23.39
2022-08-28T09:35:16.290Z,23.49
2022-08-28T09:37:44.053Z,23.59
2022-08-28T09:40:13.780Z,23.67
2022-08-28T09:42:59.240Z,23.45
2022-08-28T09:45:28.795Z,23.70
2022-08-28T09:48:00.612Z,23.74
2022-08-28T09:50:43.429Z,23.79
2022-08-28T09:53:09.820Z,23.83
2022-08-28T09:55:42.948Z,24.15
2022-08-28T09:58:09.867Z,24.19
2022-08-28T10:00:41.470Z,24.06
2022-08-28T10:03:09.390Z,24.20
2022-08-28T10:05:50.136Z,24.64
2022-08-28T10:08:31.253Z,24.74
2022-08-28T10:11:04.244Z,25.25
2022-08-28T10:13:41.941Z,25.42
2022-08-28T10:16:44.726Z,25.91
2022-08-28T10:19:39.189Z,25.11
2022-08-28T10:22:33.455Z,25.37
2022-08-28T10:25:20.769Z,25.24
2022-08-28T10:28:12.387Z,25.27
2022-08-28T10:30:52.944Z,25.14
2022-08-28T10:33:45.810Z,25.30
2022-08-28T10:36:34.305Z,25.30
2022-08-28T10:39:28.023Z,25.27
2022-08-28T10:41:58.810Z,25.46
2022-08-28T10:44:49.836Z,25.32
2022-08-28T10:47:22.230Z,25.45
2022-08-28T10:49:52.610Z,25.41
2022-08-28T10:52:27.474Z,25.40
2022-08-28T10:55:00.193Z,25.50
2022-08-28T10:57:49.167Z,25.58
2022-08-28T11:00:20.043Z,25.74
2022-08-28T11:03:22.209Z,25.58
2022-08-28T11:06:03.374Z,25.68
2022-08-28T11:08:29.741Z,25.75
2022-08-28T11:10:58.970Z,25.70
2022-08-28T11:13:47.158Z,25.69
2022-08-28T11:16:37.415Z,25.67
2022-08-28T11:19:40.858Z,25.81
2022-08-28T11:22:19.113Z,25.62
2022-08-28T11:24:55.149Z,25.61
2022-08-28T11:27:23.468Z,25.58
2022-08-28T11:30:08.939Z,25.61
2022-08-28T11:32:37.554Z,26.06
2022-08-28T11:35:10.638Z,25.96
2022-08-28T11:37:46.164Z,26.04
2022-08-28T11:40:28.153Z,26.56
2022-08-28T11:43:14.202Z,26.59
2022-08-28T11:45:42.979Z,26.43
2022-08-28T11:48:25.593Z,26.79
2022-08-28T11:51:09.696Z,27.12
2022-08-28T11:53:49.294Z,26.58
2022-08-28T11:56:53.491Z,26.87
2022-08-28T11:59:43.466Z,27.35
2022-08-28T12:02:46.497Z,26.92
2022-08-28T12:05:15.956Z,26.78
2022-08-28T12:07:43.732Z,26.46
2022-08-28T12:10:22.413Z,26.22
2022-08-28T12:12:56.222Z,26.29
2022-08-28T12:15:31.210Z,26.16
2022-08-28T12:18:15.382Z,25.94
2022-08-28T12:20:51.060Z,25.85
2022-08-28T12:23:26.037Z,25.84
2022-08-28T12:26:03.834Z,26.04
2022-08-28T12:28:33.642Z,26.40
2022-08-28T12:31:08.586Z,26.70
2022-08-28T12:33:49.674Z,26.77
2022-08-28T12:36:18.514Z,27.13
2022-08-28T12:38:53.654Z,27.17
2022-08-28T12:41:25.037Z,27.08
2022-08-28T12:43:56.602Z,27.48
2022-08-28T12:46:36.252Z,27.44
2022-08-28T12:49:05.879Z,27.52
2022-08-28T12:51:35.652Z,27.19
2022-08-28T12:54:05.205Z,27.23
2022-08-28T12:56:37.056Z,27.20
2022-08-28T12:59:23.148Z,27.56
2022-08-28T13:01:54.750Z,27.35
2022-08-28T13:04:35.744Z,27.33
2022-08-28T13:07:11.340Z,27.14
2022-08-28T13:09:43.054Z,26.62
2022-08-28T13:12:19.117Z,26.40
2022-08-28T13:14:48.171Z,26.49
2022-08-28T13:17:35.639Z,26.70
2022-08-28T13:20:06.713Z,27.08
2022-08-28T13:22:40.334Z,26.86
2022-08-28T13:25:10.383Z,27.03
2022-08-28T13:27:42.160Z,27.26
2022-08-28T13:30:14.442Z,27.31
2022-08-28T13:32:40.915Z,27.38
2022-08-28T13:35:25.500Z,27.71
2022-08-28T13:37:58.963Z,27.91
2022-08-28T13:40:56.319Z,27.60
2022-08-28T13:43:16.220Z,27.94
2022-08-28T13:45:45.380Z,27.96
2022-08-28T13:48:14.226Z,27.60
2022-08-28T13:50:46.441Z,27.36
2022-08-28T13:53:14.268Z,27.11
2022-08-28T13:55:43.803Z,27.14
2022-08-28T13:58:10.652Z,26.92
2022-08-28T14:00:41.699Z,26.83
2022-08-28T14:03:26.568Z,26.74
2022-08-28T14:05:54.270Z,26.59
2022-08-28T14:08:21.882Z,26.54
2022-08-28T14:10:52.019Z,26.39
2022-08-28T14:13:19.898Z,26.33
2022-08-28T14:15:47.421Z,26.23
2022-08-28T14:18:13.995Z,26.24
2022-08-28T14:20:40.797Z,26.22
2022-08-28T14:23:09.211Z,26.05
2022-08-28T14:25:42.201Z,25.95
2022-08-28T14:28:09.033Z,25.95
2022-08-28T14:30:42.362Z,25.86
2022-08-28T14:33:09.214Z,25.82
2022-08-28T14:35:41.068Z,25.80
2022-08-28T14:38:08.823Z,25.89
2022-08-28T14:40:40.520Z,25.96
2022-08-28T14:43:09.980Z,26.08
2022-08-28T14:45:48.534Z,26.16
2022-08-28T14:48:17.294Z,26.18
2022-08-28T14:50:45.986Z,26.27
2022-08-28T14:53:13.918Z,26.38
2022-08-28T14:55:46.269Z,26.50
2022-08-28T14:58:13.270Z,26.64
2022-08-28T15:00:46.564Z,26.69
2022-08-28T15:03:13.818Z,26.63
2022-08-28T15:05:41.600Z,26.59
2022-08-28T15:08:10.156Z,26.59
2022-08-28T15:10:42.194Z,26.52
2022-08-28T15:13:10.371Z,26.55
2022-08-28T15:15:42.212Z,26.42
2022-08-28T15:18:10.236Z,26.28
2022-08-28T15:20:41.814Z,26.32
2022-08-28T15:23:13.559Z,26.30
2022-08-28T15:25:40.720Z,26.32
2022-08-28T15:28:07.422Z,26.28
2022-08-28T15:30:34.208Z,26.23
2022-08-28T15:33:00.802Z,26.31
2022-08-28T15:35:27.312Z,26.27
2022-08-28T15:37:53.879Z,26.22
2022-08-28T15:40:39.896Z,26.26
2022-08-28T15:43:06.599Z,26.24
2022-08-28T15:45:41.949Z,26.17
2022-08-28T15:48:10.744Z,26.20
2022-08-28T15:50:37.943Z,26.21
2022-08-28T15:53:06.117Z,26.20
2022-08-28T15:55:33.960Z,26.10
2022-08-28T15:58:03.218Z,26.06
2022-08-28T16:00:33.589Z,26.10
2022-08-28T16:03:01.043Z,26.16
2022-08-28T16:05:40.805Z,26.18
2022-08-28T16:08:07.891Z,26.20
2022-08-28T16:10:34.419Z,26.17
2022-08-28T16:13:06.491Z,26.15
2022-08-28T16:15:33.822Z,26.15
2022-08-28T16:18:00.224Z,26.16
2022-08-28T16:20:26.770Z,26.10
2022-08-28T16:22:53.258Z,26.06
2022-08-28T16:25:19.791Z,26.04
2022-08-28T16:27:46.269Z,26.01
2022-08-28T16:30:15.868Z,25.96
2022-08-28T16:32:42.645Z,25.90
2022-08-28T16:35:14.866Z,25.83
2022-08-28T16:37:42.176Z,25.85
2022-08-28T16:40:09.877Z,25.83
2022-08-28T16:42:36.578Z,25.78
2022-08-28T16:45:04.631Z,25.69
2022-08-28T16:47:33.124Z,25.73
2022-08-28T16:50:08.396Z,25.82
2022-08-28T16:52:36.197Z,25.71
2022-08-28T16:55:04.475Z,25.67
2022-08-28T16:57:31.251Z,25.65
2022-08-28T16:59:57.975Z,25.59
2022-08-28T17:02:29.950Z,25.61
2022-08-28T17:05:00.483Z,25.60
2022-08-28T17:07:27.317Z,25.60
2022-08-28T17:09:53.735Z,25.59
2022-08-28T17:12:20.625Z,25.54
2022-08-28T17:14:47.113Z,25.47
2022-08-28T17:17:15.787Z,25.48
2022-08-28T17:19:42.325Z,25.39
2022-08-28T17:22:27.554Z,25.35
2022-08-28T17:24:54.350Z,25.35
2022-08-28T17:27:22.648Z,25.40
2022-08-28T17:29:50.392Z,25.28
2022-08-28T17:32:16.844Z,25.26
2022-08-28T17:34:43.352Z,25.19
2022-08-28T17:37:10.962Z,25.17
2022-08-28T17:39:38.085Z,25.09
2022-08-28T17:42:04.611Z,25.08
2022-08-28T17:44:31.062Z,25.06
2022-08-28T17:47:00.931Z,24.98
2022-08-28T17:49:27.561Z,25.00
2022-08-28T17:51:54.232Z,24.94
2022-08-28T17:54:22.678Z,24.89
2022-08-28T17:56:49.491Z,24.86
2022-08-28T17:59:16.838Z,24.83
2022-08-28T18:01:49.451Z,24.80
2022-08-28T18:04:24.489Z,24.74
2022-08-28T18:06:54.149Z,-143.61
2022-08-28T18:09:21.363Z,-143.61
2022-08-28T18:11:50.888Z,-143.61
2022-08-28T18:14:17.965Z,-143.61
2022-08-28T18:16:53.393Z,24.42
2022-08-28T18:19:20.190Z,24.42
2022-08-28T18:21:47.118Z,24.35
2022-08-28T18:24:14.007Z,24.29
2022-08-28T18:26:41.302Z,24.13
2022-08-28T18:29:07.761Z,24.17
2022-08-28T18:31:34.310Z,24.15
2022-08-28T18:34:01.109Z,24.06
2022-08-28T18:36:27.826Z,24.03
2022-08-28T18:38:54.222Z,23.95
2022-08-28T18:41:20.856Z,23.90
2022-08-28T18:43:48.152Z,23.84
2022-08-28T18:46:14.724Z,23.80
2022-08-28T18:48:44.121Z,23.72
2022-08-28T18:51:12.058Z,23.61
2022-08-28T18:53:39.002Z,23.50
2022-08-28T18:56:10.050Z,23.44
2022-08-28T18:58:41.736Z,23.42
2022-08-28T19:01:09.615Z,23.41
2022-08-28T19:03:36.340Z,23.41
2022-08-28T19:06:03.290Z,23.33
2022-08-28T19:08:30.310Z,23.29
2022-08-28T19:10:56.885Z,23.23
2022-08-28T19:13:27.880Z,23.17
2022-08-28T19:15:54.440Z,23.05
2022-08-28T19:18:21.029Z,22.95
2022-08-28T19:20:48.043Z,22.78
2022-08-28T19:23:17.684Z,22.76
2022-08-28T19:25:45.064Z,22.70
2022-08-28T19:28:11.593Z,22.67
2022-08-28T19:30:38.311Z,22.62
2022-08-28T19:33:05.712Z,22.58
2022-08-28T19:35:33.680Z,22.42
2022-08-28T19:38:00.143Z,22.27
2022-08-28T19:40:29.186Z,22.11
2022-08-28T19:42:55.711Z,21.93
2022-08-28T19:45:22.187Z,21.79
2022-08-28T19:47:49.008Z,21.75
2022-08-28T19:50:16.194Z,21.67
2022-08-28T19:52:43.297Z,21.65
2022-08-28T19:55:18.281Z,21.44
2022-08-28T19:57:46.768Z,21.29
2022-08-28T20:00:15.215Z,21.30
2022-08-28T20:02:41.963Z,21.34
2022-08-28T20:05:09.272Z,21.34
2022-08-28T20:07:35.953Z,21.19
2022-08-28T20:10:05.759Z,21.06
2022-08-28T20:12:34.370Z,20.98
2022-08-28T20:15:03.767Z,20.86
2022-08-28T20:17:30.673Z,20.76
2022-08-28T20:20:02.318Z,20.70
2022-08-28T20:22:29.582Z,20.58
2022-08-28T20:24:56.013Z,20.61
2022-08-28T20:27:22.419Z,20.47
2022-08-28T20:29:51.171Z,20.49
2022-08-28T20:32:17.712Z,20.54
2022-08-28T20:34:44.673Z,20.45
2022-08-28T20:37:11.329Z,20.49
2022-08-28T20:39:41.455Z,20.34
2022-08-28T20:42:09.397Z,20.36
2022-08-28T20:44:35.925Z,20.27
2022-08-28T20:47:02.370Z,20.24
2022-08-28T20:49:29.041Z,20.17
2022-08-28T20:51:57.544Z,20.14
2022-08-28T20:54:38.205Z,20.14
2022-08-28T20:57:08.593Z,20.04
2022-08-28T20:59:40.383Z,20.05
2022-08-28T21:02:15.888Z,20.05
2022-08-28T21:04:44.120Z,20.04
2022-08-28T21:07:12.542Z,20.11
2022-08-28T21:10:03.829Z,20.16
2022-08-28T21:12:28.690Z,20.16
2022-08-28T21:14:55.249Z,20.19
2022-08-28T21:17:26.726Z,20.21
2022-08-28T21:19:56.616Z,20.24
2022-08-28T21:22:23.239Z,20.30
2022-08-28T21:24:49.924Z,20.33
2022-08-28T21:27:16.404Z,20.26
2022-08-28T21:29:45.997Z,20.27
2022-08-28T21:32:13.274Z,20.26
2022-08-28T21:34:39.855Z,20.28
2022-08-28T21:37:08.833Z,20.32
2022-08-28T21:39:35.355Z,20.32
2022-08-28T21:42:01.900Z,20.19
2022-08-28T21:44:28.968Z,19.96
2022-08-28T21:46:55.403Z,20.01
2022-08-28T21:49:24.139Z,19.95
2022-08-28T21:51:50.645Z,19.78
2022-08-28T21:54:18.182Z,19.73
2022-08-28T21:56:45.130Z,19.59
2022-08-28T21:59:12.584Z,19.54
2022-08-28T22:01:39.161Z,19.52
2022-08-28T22:04:07.998Z,19.46
2022-08-28T22:06:34.568Z,19.47
2022-08-28T22:09:04.877Z,19.44
2022-08-28T22:11:31.938Z,19.39
2022-08-28T22:14:01.646Z,19.17
2022-08-28T22:16:28.543Z,19.25
2022-08-28T22:19:00.270Z,19.20
2022-08-28T22:21:45.640Z,19.31
2022-08-28T22:24:13.251Z,19.28
2022-08-28T22:26:41.604Z,19.14
2022-08-28T22:29:08.806Z,19.14
2022-08-28T22:31:35.574Z,19.05
2022-08-28T22:34:06.057Z,18.98
2022-08-28T22:36:35.703Z,19.00
2022-08-28T22:39:02.183Z,18.86
2022-08-28T22:41:30.128Z,18.75
2022-08-28T22:43:56.929Z,18.71
2022-08-28T22:46:23.493Z,18.61
2022-08-28T22:48:52.550Z,18.61
2022-08-28T22:51:19.243Z,18.53
2022-08-28T22:53:46.973Z,18.48
2022-08-28T22:56:14.501Z,18.43
2022-08-28T22:58:41.225Z,18.40
2022-08-28T23:01:17.575Z,18.38
2022-08-28T23:03:45.139Z,18.46
2022-08-28T23:06:12.463Z,18.48
2022-08-28T23:08:39.376Z,18.61
2022-08-28T23:11:06.233Z,18.64
2022-08-28T23:13:33.234Z,18.73
2022-08-28T23:16:05.623Z,18.74
2022-08-28T23:19:03.923Z,18.75
2022-08-28T23:21:23.817Z,18.76
2022-08-28T23:23:52.981Z,18.79
2022-08-28T23:26:19.592Z,18.76
2022-08-28T23:28:48.647Z,18.74
2022-08-28T23:31:15.408Z,18.73
2022-08-28T23:33:42.518Z,18.69
2022-08-28T23:36:13.862Z,18.71
2022-08-28T23:38:42.940Z,18.68
2022-08-28T23:41:10.717Z,18.54
2022-08-28T23:43:37.338Z,18.59
2022-08-28T23:46:05.278Z,18.59
2022-08-28T23:48:32.388Z,18.51
2022-08-28T23:50:59.059Z,18.42
2022-08-28T23:53:28.709Z,18.44
2022-08-28T23:55:55.701Z,18.43
2022-08-28T23:58:22.499Z,18.28
